createdAt,value
2023-02-23T00:01:27.880Z,90.37
2023-02-23T00:03:57.135Z,90.29
2023-02-23T00:06:25.820Z,90.50
2023-02-23T00:08:53.019Z,90.57
2023-02-23T00:11:21.056Z,90.58
2023-02-23T00:13:52.600Z,90.21
2023-02-23T00:16:23.821Z,90.68
2023-02-23T00:18:56.932Z,91.04
2023-02-23T00:21:46.808Z,91.30
2023-02-23T00:24:19.788Z,91.46
2023-02-23T00:26:48.358Z,92.11
2023-02-23T00:29:18.823Z,92.12
2023-02-23T00:31:48.295Z,92.07
2023-02-23T00:34:21.015Z,91.59
2023-02-23T00:36:51.695Z,91.61
2023-02-23T00:39:21.785Z,91.71
2023-02-23T00:41:49.835Z,92.62
2023-02-23T00:44:17.285Z,92.89
2023-02-23T00:46:45.796Z,92.88
2023-02-23T00:49:13.638Z,93.34
2023-02-23T00:51:41.720Z,93.97
2023-02-23T00:54:11.674Z,94.32
2023-02-23T00:56:39.709Z,94.13
2023-02-23T00:59:07.054Z,93.72
2023-02-23T01:01:34.073Z,94.27
2023-02-23T01:04:01.644Z,94.52
2023-02-23T01:06:28.453Z,94.49
2023-02-23T01:08:58.065Z,94.35
2023-02-23T01:11:28.044Z,94.49
2023-02-23T01:13:58.080Z,94.71
2023-02-23T01:16:28.812Z,95.05
2023-02-23T01:18:58.475Z,95.34
2023-02-23T01:21:29.149Z,95.39
2023-02-23T01:23:56.495Z,95.58
2023-02-23T01:26:31.612Z,95.61
2023-02-23T01:29:01.775Z,95.53
2023-02-23T01:31:29.976Z,95.41
2023-02-23T01:33:59.849Z,95.42
2023-02-23T01:36:29.226Z,94.97
2023-02-23T01:38:57.466Z,95.06
2023-02-23T01:41:27.926Z,95.43
2023-02-23T01:44:00.308Z,95.68
2023-02-23T01:46:27.295Z,95.62
2023-02-23T01:48:56.505Z,95.81
2023-02-23T01:51:28.055Z,96.01
2023-02-23T01:54:08.043Z,95.64
2023-02-23T01:56:43.502Z,95.75
2023-02-23T01:59:15.330Z,95.13
2023-02-23T02:01:43.629Z,95.41
2023-02-23T02:04:16.918Z,95.39
2023-02-23T02:06:48.282Z,95.05
2023-02-23T02:09:18.068Z,96.05
2023-02-23T02:11:46.639Z,96.84
2023-02-23T02:14:20.582Z,96.54
2023-02-23T02:17:16.105Z,97.06
2023-02-23T02:20:06.523Z,96.91
2023-02-23T02:22:54.225Z,97.20
2023-02-23T02:25:50.354Z,96.71
2023-02-23T02:28:46.086Z,97.48
2023-02-23T02:31:45.325Z,98.13
2023-02-23T02:34:26.049Z,98.35
2023-02-23T02:37:20.994Z,98.17
2023-02-23T02:40:17.978Z,98.01
2023-02-23T02:42:59.986Z,98.23
2023-02-23T02:45:39.032Z,97.92
2023-02-23T02:48:25.896Z,97.69
2023-02-23T02:50:58.496Z,97.41
2023-02-23T02:53:41.717Z,97.39
2023-02-23T02:56:11.004Z,97.37
2023-02-23T02:58:39.134Z,97.01
2023-02-23T03:01:32.074Z,97.33
2023-02-23T03:04:21.135Z,97.04
2023-02-23T03:07:16.466Z,96.88
2023-02-23T03:10:33.272Z,97.39
2023-02-23T03:13:24.589Z,96.91
2023-02-23T03:16:28.214Z,96.71
2023-02-23T03:19:26.106Z,96.99
2023-02-23T03:22:24.197Z,97.11
2023-02-23T03:25:25.026Z,97.03
2023-02-23T03:28:10.576Z,97.62
2023-02-23T03:31:02.932Z,97.61
2023-02-23T03:34:20.633Z,97.76
2023-02-23T03:37:14.218Z,97.57
2023-02-23T03:40:09.803Z,98.06
2023-02-23T03:42:56.859Z,98.12
2023-02-23T03:45:45.038Z,97.83
2023-02-23T03:48:35.278Z,97.70
2023-02-23T03:51:27.886Z,97.85
2023-02-23T03:54:28.945Z,98.23
2023-02-23T03:57:17.928Z,98.57
2023-02-23T04:00:10.236Z,98.34
2023-02-23T04:03:06.606Z,98.64
2023-02-23T04:05:56.397Z,98.24
2023-02-23T04:08:47.173Z,97.97
2023-02-23T04:11:41.543Z,98.29
2023-02-23T04:14:17.199Z,98.08
2023-02-23T04:16:45.314Z,98.70
2023-02-23T04:19:12.728Z,98.67
2023-02-23T04:21:39.657Z,99.13
2023-02-23T04:24:06.754Z,99.47
2023-02-23T04:26:33.764Z,99.41
2023-02-23T04:29:00.649Z,99.19
2023-02-23T04:31:27.794Z,99.01
2023-02-23T04:33:54.730Z,99.08
2023-02-23T04:36:21.562Z,99.21
2023-02-23T04:38:48.448Z,98.72
2023-02-23T04:41:15.520Z,99.07
2023-02-23T04:43:42.441Z,98.81
2023-02-23T04:46:09.853Z,98.96
2023-02-23T04:48:37.038Z,99.23
2023-02-23T04:51:04.523Z,99.22
2023-02-23T04:53:31.244Z,99.42
2023-02-23T04:55:58.572Z,99.29
2023-02-23T04:58:25.341Z,98.69
2023-02-23T05:00:53.223Z,98.56
2023-02-23T05:03:20.013Z,98.84
2023-02-23T05:05:47.112Z,98.62
2023-02-23T05:08:13.996Z,98.57
2023-02-23T05:10:40.935Z,98.68
2023-02-23T05:13:07.755Z,98.60
2023-02-23T05:15:34.786Z,98.41
2023-02-23T05:18:01.555Z,97.98
2023-02-23T05:20:29.308Z,97.86
2023-02-23T05:22:56.182Z,98.16
2023-02-23T05:25:23.304Z,98.71
2023-02-23T05:27:50.132Z,98.81
2023-02-23T05:30:17.594Z,98.80
2023-02-23T05:32:44.895Z,97.94
2023-02-23T05:35:12.462Z,98.06
2023-02-23T05:37:39.438Z,98.94
2023-02-23T05:40:07.489Z,98.80
2023-02-23T05:42:34.235Z,98.77
2023-02-23T05:45:01.189Z,99.17
2023-02-23T05:47:28.079Z,99.58
2023-02-23T05:49:54.879Z,98.81
2023-02-23T05:52:25.063Z,98.89
2023-02-23T05:54:52.409Z,98.55
2023-02-23T05:57:19.187Z,97.68
2023-02-23T05:59:46.810Z,97.38
2023-02-23T06:02:13.670Z,96.99
2023-02-23T06:04:42.245Z,96.95
2023-02-23T06:07:09.096Z,96.23
2023-02-23T06:09:36.312Z,95.86
2023-02-23T06:12:03.119Z,95.02
2023-02-23T06:14:29.981Z,94.79
2023-02-23T06:16:56.878Z,93.87
2023-02-23T06:19:24.195Z,93.44
2023-02-23T06:21:53.231Z,93.12
2023-02-23T06:24:20.343Z,93.10
2023-02-23T06:26:47.124Z,93.88
2023-02-23T06:29:14.698Z,93.58
2023-02-23T06:31:41.878Z,93.11
2023-02-23T06:34:09.847Z,93.49
2023-02-23T06:36:37.177Z,93.48
2023-02-23T06:39:05.557Z,92.95
2023-02-23T06:41:33.010Z,92.94
2023-02-23T06:43:59.946Z,93.23
2023-02-23T06:46:26.978Z,94.18
2023-02-23T06:48:57.884Z,93.76
2023-02-23T06:51:24.905Z,94.17
2023-02-23T06:53:55.100Z,94.61
2023-02-23T06:56:22.247Z,94.25
2023-02-23T06:58:49.120Z,93.77
2023-02-23T07:01:17.277Z,93.82
2023-02-23T07:03:44.272Z,93.40
2023-02-23T07:06:11.287Z,92.99
2023-02-23T07:08:38.813Z,93.20
2023-02-23T07:11:10.598Z,93.08
2023-02-23T07:13:37.681Z,92.70
2023-02-23T07:16:05.224Z,91.26
2023-02-23T07:18:32.223Z,91.31
2023-02-23T07:20:59.147Z,91.25
2023-02-23T07:23:25.925Z,90.36
2023-02-23T07:25:56.666Z,88.72
2023-02-23T07:28:25.854Z,87.82
2023-02-23T07:30:56.887Z,87.44
2023-02-23T07:33:24.928Z,85.11
2023-02-23T07:35:51.965Z,84.25
2023-02-23T07:38:19.107Z,83.52
2023-02-23T07:40:46.062Z,83.55
2023-02-23T07:43:13.274Z,83.05
2023-02-23T07:45:40.092Z,83.17
2023-02-23T07:48:07.403Z,83.03
2023-02-23T07:50:34.151Z,82.70
2023-02-23T07:53:01.472Z,82.73
2023-02-23T07:55:28.391Z,82.12
2023-02-23T07:57:55.519Z,82.22
2023-02-23T08:00:22.521Z,81.81
2023-02-23T08:02:49.468Z,81.27
2023-02-23T08:05:16.667Z,81.35
2023-02-23T08:07:43.441Z,80.79
2023-02-23T08:10:11.353Z,80.42
2023-02-23T08:12:38.347Z,79.53
2023-02-23T08:15:08.860Z,80.28
2023-02-23T08:17:40.211Z,79.85
2023-02-23T08:20:08.928Z,79.25
2023-02-23T08:22:48.562Z,79.69
2023-02-23T08:25:18.388Z,79.72
2023-02-23T08:27:45.672Z,80.47
2023-02-23T08:30:14.175Z,79.58
2023-02-23T08:32:41.243Z,79.45
2023-02-23T08:35:10.161Z,79.62
2023-02-23T08:37:37.386Z,79.93
2023-02-23T08:40:05.322Z,79.40
2023-02-23T08:42:32.278Z,79.34
2023-02-23T08:45:01.463Z,80.61
2023-02-23T08:47:28.594Z,79.36
2023-02-23T08:49:55.530Z,79.66
2023-02-23T08:52:22.386Z,79.65
2023-02-23T08:54:49.415Z,79.28
2023-02-23T08:57:16.213Z,78.21
2023-02-23T08:59:43.155Z,77.17
2023-02-23T09:02:14.278Z,76.12
2023-02-23T09:04:44.816Z,74.62
2023-02-23T09:07:17.411Z,74.72
2023-02-23T09:09:44.484Z,74.58
2023-02-23T09:12:11.316Z,75.31
2023-02-23T09:14:38.300Z,74.91
2023-02-23T09:17:05.175Z,74.39
2023-02-23T09:19:32.167Z,74.30
2023-02-23T09:21:58.990Z,73.63
2023-02-23T09:24:26.114Z,73.52
2023-02-23T09:26:53.897Z,74.65
2023-02-23T09:29:21.435Z,74.29
2023-02-23T09:31:48.404Z,73.39
2023-02-23T09:34:15.417Z,72.25
2023-02-23T09:36:45.455Z,72.67
2023-02-23T09:39:12.478Z,72.20
2023-02-23T09:41:56.351Z,71.08
2023-02-23T09:44:45.539Z,70.35
2023-02-23T09:47:33.557Z,70.00
2023-02-23T09:50:06.493Z,69.97
2023-02-23T09:52:42.622Z,70.82
2023-02-23T09:55:13.152Z,70.80
2023-02-23T09:57:44.754Z,69.21
2023-02-23T10:00:20.296Z,67.69
2023-02-23T10:03:12.064Z,67.61
2023-02-23T10:05:44.214Z,67.64
2023-02-23T10:08:28.930Z,66.07
2023-02-23T10:11:15.083Z,66.41
2023-02-23T10:14:05.313Z,65.88
2023-02-23T10:17:00.947Z,65.99
2023-02-23T10:19:55.164Z,65.53
2023-02-23T10:22:22.470Z,67.30
2023-02-23T10:25:00.605Z,67.55
2023-02-23T10:27:40.677Z,67.93
2023-02-23T10:30:24.413Z,69.18
2023-02-23T10:33:13.399Z,68.63
2023-02-23T10:35:40.500Z,68.86
2023-02-23T10:38:17.674Z,68.22
2023-02-23T10:41:06.171Z,68.01
2023-02-23T10:43:33.416Z,67.55
2023-02-23T10:46:00.358Z,66.70
2023-02-23T10:48:39.970Z,65.49
2023-02-23T10:51:14.509Z,65.37
2023-02-23T10:53:41.746Z,64.78
2023-02-23T10:56:15.006Z,64.18
2023-02-23T10:58:51.194Z,64.56
2023-02-23T11:01:32.932Z,64.96
2023-02-23T11:04:24.069Z,64.19
2023-02-23T11:07:06.027Z,64.82
2023-02-23T11:09:45.633Z,65.87
2023-02-23T11:12:22.064Z,66.55
2023-02-23T11:14:58.637Z,66.52
2023-02-23T11:17:37.632Z,66.97
2023-02-23T11:20:13.213Z,66.48
2023-02-23T11:22:42.534Z,66.87
2023-02-23T11:25:23.645Z,66.10
2023-02-23T11:27:57.155Z,67.13
2023-02-23T11:30:31.171Z,67.25
2023-02-23T11:33:09.613Z,66.46
2023-02-23T11:35:38.313Z,66.25
2023-02-23T11:38:26.992Z,65.78
2023-02-23T11:41:24.012Z,66.55
2023-02-23T11:43:57.095Z,66.22
2023-02-23T11:46:25.941Z,65.70
2023-02-23T11:49:02.832Z,66.38
2023-02-23T11:51:35.179Z,65.16
2023-02-23T11:54:05.787Z,65.23
2023-02-23T11:56:35.484Z,65.99
2023-02-23T11:59:15.896Z,65.11
2023-02-23T12:01:46.848Z,65.00
2023-02-23T12:04:37.475Z,64.46
2023-02-23T12:07:41.583Z,64.92
2023-02-23T12:10:19.891Z,64.54
2023-02-23T12:13:24.222Z,64.00
2023-02-23T12:16:03.342Z,64.35
2023-02-23T12:18:39.313Z,64.71
2023-02-23T12:21:25.374Z,65.62
2023-02-23T12:24:03.057Z,64.72
2023-02-23T12:26:33.872Z,65.41
2023-02-23T12:29:13.591Z,64.26
2023-02-23T12:31:54.455Z,64.46
2023-02-23T12:34:31.231Z,64.07
2023-02-23T12:37:10.584Z,63.95
2023-02-23T12:39:43.462Z,64.60
2023-02-23T12:42:29.087Z,63.75
2023-02-23T12:45:03.018Z,65.04
2023-02-23T12:47:49.782Z,64.36
2023-02-23T12:50:37.828Z,64.55
2023-02-23T12:53:42.450Z,65.59
2023-02-23T12:56:35.823Z,66.26
2023-02-23T12:59:13.514Z,65.55
2023-02-23T13:01:46.428Z,65.22
2023-02-23T13:05:04.966Z,65.57
2023-02-23T13:07:45.282Z,65.63
2023-02-23T13:10:39.937Z,65.29
2023-02-23T13:13:31.153Z,66.24
2023-02-23T13:16:22.798Z,66.66
2023-02-23T13:18:50.003Z,66.77
2023-02-23T13:21:41.920Z,67.23
2023-02-23T13:24:19.228Z,67.07
2023-02-23T13:27:03.589Z,67.12
2023-02-23T13:29:40.748Z,67.40
2023-02-23T13:32:17.953Z,67.42
2023-02-23T13:34:50.255Z,67.21
2023-02-23T13:37:20.953Z,67.99
2023-02-23T13:39:56.601Z,67.84
2023-02-23T13:42:48.836Z,66.87
2023-02-23T13:45:37.705Z,67.81
2023-02-23T13:48:17.042Z,68.13
2023-02-23T13:51:00.445Z,68.24
2023-02-23T13:53:39.715Z,68.97
2023-02-23T13:56:16.559Z,69.51
2023-02-23T13:58:51.642Z,68.48
2023-02-23T14:01:23.058Z,69.03
2023-02-23T14:03:57.333Z,69.13
2023-02-23T14:06:27.699Z,68.41
2023-02-23T14:09:08.297Z,69.08
2023-02-23T14:11:53.796Z,69.60
2023-02-23T14:14:36.778Z,69.73
2023-02-23T14:17:20.086Z,69.98
2023-02-23T14:19:56.644Z,70.14
2023-02-23T14:22:23.862Z,70.61
2023-02-23T14:25:27.900Z,70.14
2023-02-23T14:28:06.817Z,70.66
2023-02-23T14:31:03.306Z,71.12
2023-02-23T14:33:36.364Z,71.03
2023-02-23T14:36:26.589Z,70.73
2023-02-23T14:38:53.459Z,71.79
2023-02-23T14:41:26.795Z,71.47
2023-02-23T14:44:20.104Z,71.37
2023-02-23T14:47:16.848Z,70.54
2023-02-23T14:50:01.725Z,70.26
2023-02-23T14:52:33.449Z,70.81
2023-02-23T14:55:12.416Z,70.46
2023-02-23T14:57:42.310Z,70.50
2023-02-23T15:00:16.089Z,70.24
2023-02-23T15:03:02.103Z,70.67
2023-02-23T15:05:51.360Z,70.27
2023-02-23T15:08:23.064Z,70.49
2023-02-23T15:11:00.341Z,70.62
2023-02-23T15:16:06.720Z,71.41
2023-02-23T15:18:40.470Z,71.60
2023-02-23T15:21:14.205Z,72.07
2023-02-23T15:23:44.809Z,71.91
2023-02-23T15:26:39.528Z,72.73
2023-02-23T15:29:18.650Z,73.34
2023-02-23T15:31:52.393Z,73.49
2023-02-23T15:34:26.914Z,72.98
2023-02-23T15:37:14.737Z,73.52
2023-02-23T15:39:53.380Z,74.44
2023-02-23T15:42:33.483Z,74.75
2023-02-23T15:45:03.726Z,75.69
2023-02-23T15:47:36.719Z,76.02
2023-02-23T15:50:34.915Z,76.50
2023-02-23T15:53:13.900Z,77.74
2023-02-23T15:55:43.324Z,77.36
2023-02-23T15:58:32.775Z,77.72
2023-02-23T16:01:08.322Z,78.84
2023-02-23T16:03:37.674Z,79.07
2023-02-23T16:06:07.753Z,79.77
2023-02-23T16:08:36.907Z,80.11
2023-02-23T16:11:12.565Z,80.71
2023-02-23T16:13:46.750Z,80.27
2023-02-23T16:16:20.524Z,81.09
2023-02-23T16:18:53.465Z,81.60
2023-02-23T16:21:25.317Z,81.48
2023-02-23T16:23:55.970Z,81.79
2023-02-23T16:26:47.737Z,81.94
2023-02-23T16:29:20.081Z,82.21
2023-02-23T16:31:50.892Z,81.73
2023-02-23T16:34:31.620Z,81.99
2023-02-23T16:37:17.888Z,82.09
2023-02-23T16:39:45.610Z,82.38
2023-02-23T16:42:24.247Z,83.52
2023-02-23T16:44:51.289Z,83.48
2023-02-23T16:47:36.505Z,83.51
2023-02-23T16:50:19.968Z,83.87
2023-02-23T16:52:53.621Z,84.35
2023-02-23T16:55:26.048Z,84.83
2023-02-23T16:58:02.561Z,84.56
2023-02-23T17:00:32.486Z,86.12
2023-02-23T17:03:00.773Z,86.05
2023-02-23T17:05:29.347Z,85.33
2023-02-23T17:07:58.306Z,85.74
2023-02-23T17:10:33.567Z,85.77
2023-02-23T17:13:05.168Z,86.14
2023-02-23T17:15:39.615Z,86.47
2023-02-23T17:18:08.701Z,85.93
2023-02-23T17:20:35.524Z,86.25
2023-02-23T17:23:03.021Z,86.58
2023-02-23T17:25:30.180Z,86.61
2023-02-23T17:27:58.154Z,86.56
2023-02-23T17:30:25.835Z,87.70
2023-02-23T17:32:55.788Z,87.14
2023-02-23T17:35:24.389Z,87.78
2023-02-23T17:37:51.653Z,87.17
2023-02-23T17:40:32.448Z,87.09
2023-02-23T17:43:09.462Z,86.94
2023-02-23T17:45:42.773Z,87.02
2023-02-23T17:48:10.375Z,86.71
2023-02-23T17:50:46.648Z,87.13
2023-02-23T17:53:26.227Z,86.92
2023-02-23T17:55:57.640Z,87.24
2023-02-23T17:58:27.084Z,87.43
2023-02-23T18:00:58.884Z,86.90
2023-02-23T18:03:32.181Z,87.21
2023-02-23T18:06:00.982Z,87.99
2023-02-23T18:11:09.017Z,87.55
2023-02-23T18:13:37.125Z,88.37
2023-02-23T18:16:09.151Z,88.58
2023-02-23T18:18:38.791Z,88.65
2023-02-23T18:21:12.511Z,88.15
2023-02-23T18:23:39.836Z,88.77
2023-02-23T18:26:09.815Z,88.35
2023-02-23T18:28:38.613Z,88.84
2023-02-23T18:31:06.090Z,88.76
2023-02-23T18:33:35.937Z,89.42
2023-02-23T18:36:04.158Z,89.52
2023-02-23T18:38:31.080Z,89.85
2023-02-23T18:40:58.827Z,89.42
2023-02-23T18:43:25.598Z,89.25
2023-02-23T18:45:52.485Z,88.66
2023-02-23T18:48:20.573Z,88.95
2023-02-23T18:50:47.446Z,89.20
2023-02-23T18:53:14.505Z,88.18
2023-02-23T18:55:41.558Z,87.76
2023-02-23T18:58:08.589Z,87.66
2023-02-23T19:00:40.208Z,88.08
2023-02-23T19:03:07.452Z,88.19
2023-02-23T19:05:36.247Z,87.86
2023-02-23T19:08:08.676Z,87.78
2023-02-23T19:10:36.420Z,87.51
2023-02-23T19:13:03.241Z,86.62
2023-02-23T19:15:31.126Z,87.04
2023-02-23T19:17:58.011Z,87.23
2023-02-23T19:20:32.560Z,87.40
2023-02-23T19:22:59.590Z,86.89
2023-02-23T19:25:26.463Z,87.18
2023-02-23T19:27:53.638Z,87.11
2023-02-23T19:30:20.501Z,87.06
2023-02-23T19:32:47.916Z,87.46
2023-02-23T19:35:15.270Z,86.78
2023-02-23T19:37:47.702Z,86.47
2023-02-23T19:40:19.875Z,85.90
2023-02-23T19:42:49.667Z,85.99
2023-02-23T19:45:17.909Z,86.51
2023-02-23T19:47:46.688Z,86.57
2023-02-23T19:50:16.932Z,86.10
2023-02-23T19:52:45.624Z,85.94
2023-02-23T19:55:13.604Z,86.24
2023-02-23T19:57:40.654Z,85.87
2023-02-23T20:00:12.185Z,85.65
2023-02-23T20:02:44.477Z,84.51
2023-02-23T20:05:16.563Z,84.63
2023-02-23T20:07:43.671Z,84.70
2023-02-23T20:10:16.509Z,84.41
2023-02-23T20:12:44.596Z,84.65
2023-02-23T20:15:14.940Z,85.02
2023-02-23T20:17:42.436Z,85.00
2023-02-23T20:20:13.678Z,84.44
2023-02-23T20:22:45.062Z,84.72
2023-02-23T20:25:15.770Z,84.09
2023-02-23T20:27:44.055Z,83.44
2023-02-23T20:30:12.558Z,83.79
2023-02-23T20:32:39.889Z,83.80
2023-02-23T20:35:07.470Z,83.68
2023-02-23T20:37:34.455Z,83.86
2023-02-23T20:40:01.272Z,83.76
2023-02-23T20:42:28.672Z,83.92
2023-02-23T20:44:55.674Z,83.68
2023-02-23T20:47:24.739Z,83.37
2023-02-23T20:49:51.560Z,83.62
2023-02-23T20:52:18.471Z,83.39
2023-02-23T20:54:45.225Z,83.32
2023-02-23T20:57:12.849Z,83.03
2023-02-23T20:59:40.433Z,82.92
2023-02-23T21:02:09.124Z,83.87
2023-02-23T21:04:38.119Z,82.90
2023-02-23T21:07:05.610Z,83.26
2023-02-23T21:09:33.039Z,83.07
2023-02-23T21:12:00.088Z,82.52
2023-02-23T21:14:26.909Z,82.17
2023-02-23T21:16:53.944Z,82.71
2023-02-23T21:19:23.885Z,81.80
2023-02-23T21:21:57.974Z,82.33
2023-02-23T21:24:26.321Z,82.25
2023-02-23T21:26:53.069Z,81.63
2023-02-23T21:29:23.889Z,82.07
2023-02-23T21:31:51.134Z,81.62
2023-02-23T21:34:20.867Z,82.50
2023-02-23T21:36:48.347Z,81.81
2023-02-23T21:39:15.548Z,81.64
2023-02-23T21:41:42.373Z,82.43
2023-02-23T21:44:09.425Z,82.17
2023-02-23T21:46:36.582Z,82.42
2023-02-23T21:49:09.607Z,82.98
2023-02-23T21:51:37.014Z,82.26
2023-02-23T21:54:04.433Z,82.61
2023-02-23T21:56:32.821Z,83.16
2023-02-23T21:58:59.803Z,81.82
2023-02-23T22:01:29.778Z,82.62
2023-02-23T22:03:57.866Z,82.39
2023-02-23T22:06:28.096Z,82.12
2023-02-23T22:08:55.947Z,82.79
2023-02-23T22:11:26.960Z,82.91
2023-02-23T22:13:59.926Z,82.80
2023-02-23T22:16:32.188Z,82.64
2023-02-23T22:19:03.711Z,82.75
2023-02-23T22:21:33.602Z,82.79
2023-02-23T22:24:01.669Z,82.75
2023-02-23T22:26:30.349Z,82.45
2023-02-23T22:28:57.332Z,82.69
2023-02-23T22:31:24.813Z,82.46
2023-02-23T22:33:52.126Z,81.93
2023-02-23T22:36:19.184Z,82.07
2023-02-23T22:38:46.889Z,82.37
2023-02-23T22:41:13.928Z,82.48
2023-02-23T22:43:43.361Z,82.08
2023-02-23T22:46:10.994Z,81.87
2023-02-23T22:48:38.169Z,81.33
2023-02-23T22:51:05.434Z,82.17
2023-02-23T22:53:32.276Z,82.28
2023-02-23T22:55:59.669Z,82.17
2023-02-23T22:58:26.824Z,82.12
2023-02-23T23:01:04.986Z,82.29
2023-02-23T23:03:39.654Z,82.63
2023-02-23T23:06:10.170Z,82.78
2023-02-23T23:08:42.737Z,83.32
2023-02-23T23:11:13.721Z,83.09
2023-02-23T23:13:44.793Z,82.89
2023-02-23T23:16:16.731Z,82.68
2023-02-23T23:18:54.476Z,82.86
2023-02-23T23:21:24.593Z,83.49
2023-02-23T23:23:54.277Z,83.72
2023-02-23T23:26:23.368Z,83.72
2023-02-23T23:29:01.243Z,84.20
2023-02-23T23:31:29.888Z,84.41
2023-02-23T23:34:00.267Z,84.42
2023-02-23T23:36:29.447Z,84.85
2023-02-23T23:38:56.648Z,85.82
2023-02-23T23:41:25.386Z,86.40
2023-02-23T23:43:54.887Z,86.81
2023-02-23T23:46:30.643Z,87.45
2023-02-23T23:49:04.686Z,87.46
2023-02-23T23:51:38.824Z,87.67
2023-02-23T23:54:08.366Z,88.09
2023-02-23T23:56:39.475Z,88.35
2023-02-23T23:59:11.137Z,87.51
